Time;durP1;ratioP1;P1;durP2;ratioP2;P2;SDS_P1;SDS_P2;PMS_P1;PMS_P2;Temp;Humidity;BMP_temperature;BMP_pressure;BME280_temperature;BME280_humidity;BME280_pressure;Samples;Min_cycle;Max_cycle;Signal;HPM_P1;HPM_P2
2021/11/16 00:00:41;;;;;;;1.60;1.30;;;7.50;98.20;;;;;;4894103;29;20912;-78
2021/11/16 00:03:10;;;;;;;1.60;1.40;;;7.40;98.20;;;;;;4898834;29;20472;-77
2021/11/16 00:05:37;;;;;;;1.60;1.30;;;7.40;98.20;;;;;;4892121;29;20494;-79
2021/11/16 00:08:07;;;;;;;1.60;1.30;;;7.40;98.20;;;;;;4902743;29;20495;-78
2021/11/16 00:10:34;;;;;;;1.60;1.30;;;7.40;98.20;;;;;;4915579;29;20848;-78
2021/11/16 00:13:02;;;;;;;1.60;1.30;;;7.40;98.20;;;;;;4915329;29;20479;-79
2021/11/16 00:15:29;;;;;;;1.60;1.30;;;7.30;98.20;;;;;;4908840;29;20465;-79
2021/11/16 00:17:56;;;;;;;1.60;1.40;;;7.30;98.20;;;;;;4898179;29;20490;-78
2021/11/16 00:20:23;;;;;;;1.60;1.30;;;7.30;98.20;;;;;;4910748;29;20892;-79
2021/11/16 00:22:50;;;;;;;1.60;1.30;;;7.30;98.20;;;;;;4892485;29;20949;-79
2021/11/16 00:25:22;;;;;;;1.60;1.30;;;7.30;98.20;;;;;;4891981;29;20493;-78
2021/11/16 00:27:50;;;;;;;1.60;1.30;;;7.30;98.20;;;;;;4899762;29;20478;-79
2021/11/16 00:30:17;;;;;;;1.60;1.30;;;7.30;98.20;;;;;;4917818;29;20475;-79
2021/11/16 00:32:45;;;;;;;1.60;1.30;;;7.30;98.20;;;;;;4919723;29;20479;-78
2021/11/16 00:35:12;;;;;;;1.60;1.30;;;7.30;98.20;;;;;;4901104;29;20469;-77
2021/11/16 00:37:39;;;;;;;1.70;1.40;;;7.30;98.20;;;;;;4895584;29;20493;-78
2021/11/16 00:40:10;;;;;;;1.60;1.30;;;7.30;98.20;;;;;;4896370;29;20472;-79
2021/11/16 00:42:38;;;;;;;1.90;1.70;;;7.30;98.20;;;;;;4897437;29;20861;-78
2021/11/16 00:45:07;;;;;;;1.60;1.30;;;7.30;98.20;;;;;;4895419;29;20491;-77
2021/11/16 00:47:34;;;;;;;3.23;2.93;;;7.30;98.20;;;;;;4896611;29;20508;-79
2021/11/16 00:50:00;;;;;;;1.60;1.30;;;7.30;98.20;;;;;;4902092;29;20768;-78
2021/11/16 00:52:28;;;;;;;1.60;1.30;;;7.30;98.20;;;;;;4895556;29;20473;-79
2021/11/16 00:54:54;;;;;;;1.60;1.30;;;7.20;98.20;;;;;;4916838;29;20480;-77
2021/11/16 00:57:21;;;;;;;1.60;1.30;;;7.20;98.20;;;;;;4903932;29;20858;-77
2021/11/16 00:59:49;;;;;;;1.60;1.30;;;7.30;98.20;;;;;;4915945;29;20520;-80
2021/11/16 01:02:16;;;;;;;1.60;1.30;;;7.30;98.20;;;;;;4902515;29;20470;-78
2021/11/16 01:04:48;;;;;;;1.60;1.30;;;7.30;98.20;;;;;;4901578;29;20488;-78
2021/11/16 01:07:16;;;;;;;1.70;1.40;;;7.20;98.20;;;;;;4901756;29;20508;-77
2021/11/16 01:09:43;;;;;;;1.60;1.30;;;7.20;98.20;;;;;;4903194;29;20911;-79
2021/11/16 01:12:11;;;;;;;1.63;1.40;;;7.20;98.20;;;;;;4910461;29;20988;-78
2021/11/16 01:14:38;;;;;;;1.67;1.43;;;7.20;98.20;;;;;;4902451;29;20469;-78
2021/11/16 01:17:06;;;;;;;1.60;1.40;;;7.20;98.20;;;;;;4903563;29;20461;-77
2021/11/16 01:19:33;;;;;;;1.70;1.50;;;7.20;98.20;;;;;;4909317;29;20476;-78
2021/11/16 01:22:00;;;;;;;1.60;1.30;;;7.20;98.20;;;;;;4918741;29;20468;-79
2021/11/16 01:24:27;;;;;;;1.60;1.23;;;7.20;98.20;;;;;;4919068;29;20468;-78
2021/11/16 01:26:55;;;;;;;1.60;1.30;;;7.20;98.20;;;;;;4905599;29;20493;-79
2021/11/16 01:29:23;;;;;;;1.60;1.30;;;7.10;98.20;;;;;;4916266;29;20461;-78
2021/11/16 01:31:54;;;;;;;1.60;1.30;;;7.10;98.20;;;;;;4901882;29;20980;-79
2021/11/16 01:34:27;;;;;;;1.60;1.30;;;7.10;98.20;;;;;;4903652;29;20472;-79
2021/11/16 01:36:54;;;;;;;1.60;1.30;;;7.10;98.20;;;;;;4912409;29;20880;-79
2021/11/16 01:39:21;;;;;;;1.60;1.30;;;7.10;98.20;;;;;;4901250;29;20470;-78
2021/11/16 01:41:48;;;;;;;1.70;1.40;;;7.10;98.20;;;;;;4901793;29;20473;-78
2021/11/16 01:44:15;;;;;;;1.60;1.30;;;7.10;98.20;;;;;;4901283;29;20470;-80
2021/11/16 01:46:42;;;;;;;1.60;1.30;;;7.10;98.20;;;;;;4900705;29;20496;-79
2021/11/16 01:49:09;;;;;;;1.60;1.40;;;7.10;98.20;;;;;;4896400;29;20981;-79
2021/11/16 01:51:39;;;;;;;1.60;1.30;;;7.10;98.20;;;;;;4901017;29;20564;-79
2021/11/16 01:54:06;;;;;;;1.60;1.30;;;7.10;98.20;;;;;;4901764;29;20485;-78
2021/11/16 01:56:37;;;;;;;1.60;1.33;;;7.10;98.20;;;;;;4905048;29;20461;-79
2021/11/16 01:59:04;;;;;;;1.60;1.30;;;7.10;98.20;;;;;;4914219;29;20488;-78
2021/11/16 02:01:32;;;;;;;1.60;1.30;;;7.10;98.20;;;;;;4905973;29;20977;-78
2021/11/16 02:04:00;;;;;;;1.60;1.30;;;7.10;98.20;;;;;;4902058;29;20501;-78
2021/11/16 02:06:28;;;;;;;1.63;1.30;;;7.10;98.20;;;;;;4900951;29;20501;-78
2021/11/16 02:08:59;;;;;;;1.60;1.20;;;7.10;98.20;;;;;;4900201;29;20486;-79
2021/11/16 02:11:27;;;;;;;1.60;1.20;;;7.10;98.20;;;;;;4901261;29;20497;-78
2021/11/16 02:13:54;;;;;;;1.63;1.30;;;7.10;98.20;;;;;;4900205;29;20473;-80
2021/11/16 02:16:21;;;;;;;1.60;1.30;;;7.10;98.20;;;;;;4897517;29;20488;-80
2021/11/16 02:18:49;;;;;;;1.60;1.30;;;7.10;98.20;;;;;;4903446;29;20641;-79
2021/11/16 02:21:17;;;;;;;1.60;1.30;;;7.10;98.20;;;;;;4917374;29;20465;-78
2021/11/16 02:23:44;;;;;;;1.60;1.30;;;7.10;98.20;;;;;;4917284;29;20475;-78
2021/11/16 02:26:12;;;;;;;1.60;1.30;;;7.10;98.20;;;;;;4912067;29;20472;-78
2021/11/16 02:28:43;;;;;;;1.60;1.30;;;7.10;98.20;;;;;;4906536;29;20485;-79
2021/11/16 02:31:09;;;;;;;1.60;1.30;;;7.10;98.20;;;;;;4907791;29;20504;-79
2021/11/16 02:33:36;;;;;;;1.60;1.40;;;7.10;98.20;;;;;;4918575;29;20473;-79
2021/11/16 02:36:03;;;;;;;1.60;1.30;;;7.10;98.20;;;;;;4917497;29;20836;-78
2021/11/16 02:38:32;;;;;;;1.60;1.30;;;7.10;98.20;;;;;;4904372;29;20504;-77
2021/11/16 02:40:59;;;;;;;1.60;1.30;;;7.10;98.20;;;;;;4899982;29;20484;-79
2021/11/16 02:43:26;;;;;;;4.13;3.83;;;7.10;98.20;;;;;;4898462;29;20473;-78
2021/11/16 02:45:53;;;;;;;1.70;1.40;;;7.10;98.20;;;;;;4901288;29;20849;-79
2021/11/16 02:48:20;;;;;;;1.60;1.30;;;7.10;98.20;;;;;;4901676;29;20493;-78
2021/11/16 02:50:49;;;;;;;1.67;1.30;;;7.10;98.20;;;;;;4903317;29;20633;-78
2021/11/16 02:53:18;;;;;;;1.60;1.30;;;7.10;98.20;;;;;;4904699;29;20469;-78
2021/11/16 02:55:46;;;;;;;1.63;1.30;;;7.20;98.20;;;;;;4896430;29;20965;-78
2021/11/16 02:58:15;;;;;;;1.60;1.30;;;7.20;98.20;;;;;;4894754;29;20838;-79
2021/11/16 03:00:46;;;;;;;1.60;1.30;;;7.20;98.20;;;;;;4894685;29;20473;-79
2021/11/16 03:03:14;;;;;;;1.60;1.30;;;7.20;98.20;;;;;;4911679;29;20540;-78
2021/11/16 03:05:41;;;;;;;1.60;1.30;;;7.20;98.20;;;;;;4901946;29;20466;-78
2021/11/16 03:08:14;;;;;;;1.60;1.23;;;7.20;98.20;;;;;;4903224;29;20496;-78
2021/11/16 03:10:41;;;;;;;1.60;1.30;;;7.20;98.20;;;;;;4916778;29;20478;-79
2021/11/16 03:13:10;;;;;;;1.70;1.47;;;7.20;98.20;;;;;;4916777;29;20469;-79
2021/11/16 03:15:37;;;;;;;1.67;1.40;;;7.20;98.20;;;;;;4910268;29;20481;-78
2021/11/16 03:18:04;;;;;;;1.60;1.30;;;7.20;98.20;;;;;;4894243;29;20489;-78
2021/11/16 03:20:31;;;;;;;1.60;1.30;;;7.20;98.20;;;;;;4909102;29;20476;-79
2021/11/16 03:23:06;;;;;;;1.70;1.40;;;7.10;98.20;;;;;;4903805;29;20471;-78
2021/11/16 03:25:35;;;;;;;1.70;1.50;;;7.10;98.20;;;;;;4905162;29;20465;-77
2021/11/16 03:28:06;;;;;;;1.60;1.30;;;7.20;98.20;;;;;;4904641;29;20521;-78
2021/11/16 03:30:34;;;;;;;1.60;1.40;;;7.20;98.20;;;;;;4892573;29;20474;-79
2021/11/16 03:33:02;;;;;;;1.60;1.33;;;7.20;98.20;;;;;;4893245;29;20556;-78
2021/11/16 03:35:29;;;;;;;1.60;1.30;;;7.20;98.20;;;;;;4893974;29;20470;-78
2021/11/16 03:37:59;;;;;;;1.60;1.40;;;7.20;98.20;;;;;;4910594;29;20518;-78
2021/11/16 03:40:27;;;;;;;1.60;1.30;;;7.20;98.20;;;;;;4904796;29;20469;-78
2021/11/16 03:42:54;;;;;;;1.60;1.30;;;7.30;98.20;;;;;;4899908;29;20492;-77
2021/11/16 03:45:27;;;;;;;1.70;1.40;;;7.20;98.20;;;;;;4911283;29;20462;-78
2021/11/16 03:47:57;;;;;;;1.60;1.30;;;7.30;98.20;;;;;;4891492;29;20844;-78
2021/11/16 03:50:26;;;;;;;1.60;1.30;;;7.30;98.20;;;;;;4916640;23;20509;-72
2021/11/16 03:52:56;;;;;;;1.60;1.30;;;7.30;98.20;;;;;;4891927;29;20472;-72
2021/11/16 03:55:25;;;;;;;1.60;1.20;;;7.30;98.20;;;;;;4893724;29;20473;-72
2021/11/16 03:57:55;;;;;;;1.60;1.30;;;7.30;98.20;;;;;;4890006;29;20845;-72
2021/11/16 04:00:24;;;;;;;1.60;1.30;;;7.30;98.20;;;;;;4910459;29;21105;-72
2021/11/16 04:02:51;;;;;;;1.60;1.30;;;7.30;98.20;;;;;;4911236;29;20508;-72
2021/11/16 04:05:20;;;;;;;1.60;1.30;;;7.30;98.20;;;;;;4910261;29;20476;-72
2021/11/16 04:07:47;;;;;;;1.60;1.20;;;7.30;98.20;;;;;;4910988;29;20500;-72
2021/11/16 04:10:14;;;;;;;1.60;1.40;;;7.30;98.20;;;;;;4900784;29;20571;-72
2021/11/16 04:12:43;;;;;;;1.60;1.30;;;7.30;98.20;;;;;;4897375;29;21204;-72
2021/11/16 04:15:10;;;;;;;1.60;1.30;;;7.30;98.20;;;;;;4895352;29;20465;-72
2021/11/16 04:17:40;;;;;;;1.60;1.30;;;7.30;98.20;;;;;;4890526;29;20822;-72
2021/11/16 04:20:11;;;;;;;1.60;1.30;;;7.30;98.20;;;;;;4904570;29;20524;-72
2021/11/16 04:22:40;;;;;;;1.60;1.37;;;7.30;98.20;;;;;;4910966;29;20971;-72
2021/11/16 04:25:07;;;;;;;1.90;1.77;;;7.30;98.20;;;;;;4906357;29;20825;-72
2021/11/16 04:27:34;;;;;;;1.60;1.30;;;7.30;98.20;;;;;;4899154;29;20493;-73
2021/11/16 04:30:01;;;;;;;1.60;1.30;;;7.30;98.20;;;;;;4909978;29;21088;-72
2021/11/16 04:32:28;;;;;;;1.60;1.23;;;7.30;98.20;;;;;;4908467;29;20484;-72
2021/11/16 04:34:55;;;;;;;1.60;1.30;;;7.30;98.20;;;;;;4910692;29;21008;-72
2021/11/16 04:37:22;;;;;;;1.60;1.30;;;7.30;98.20;;;;;;4910810;29;20480;-73
2021/11/16 04:39:50;;;;;;;1.60;1.30;;;7.30;98.20;;;;;;4911074;29;20844;-73
2021/11/16 04:42:17;;;;;;;1.60;1.30;;;7.30;98.20;;;;;;4910605;29;20483;-73
2021/11/16 04:44:45;;;;;;;1.60;1.30;;;7.30;98.20;;;;;;4910223;29;20473;-72
2021/11/16 04:47:15;;;;;;;1.60;1.30;;;7.30;98.20;;;;;;4892731;29;21012;-73
2021/11/16 04:49:44;;;;;;;1.63;1.30;;;7.30;98.20;;;;;;4894460;29;20473;-72
2021/11/16 04:52:18;;;;;;;1.60;1.40;;;7.30;98.20;;;;;;4893093;29;20845;-73
2021/11/16 05:02:59;;;;;;;1.60;1.30;;;7.30;98.20;;;;;;4873195;29;20528;-73
2021/11/16 05:05:26;;;;;;;1.60;1.30;;;7.30;98.20;;;;;;4892753;29;20477;-73
2021/11/16 05:07:56;;;;;;;1.60;1.30;;;7.30;98.20;;;;;;4898179;29;20485;-72
2021/11/16 05:10:24;;;;;;;1.60;1.30;;;7.30;98.20;;;;;;4908440;29;20492;-72
2021/11/16 05:12:54;;;;;;;1.60;1.20;;;7.30;98.20;;;;;;4905430;29;20509;-73
2021/11/16 05:15:21;;;;;;;1.60;1.30;;;7.30;98.20;;;;;;4890973;29;20913;-73
2021/11/16 05:17:49;;;;;;;1.60;1.30;;;7.30;98.20;;;;;;4893403;29;20844;-73
2021/11/16 05:20:18;;;;;;;1.60;1.30;;;7.30;98.20;;;;;;4905335;29;20488;-76
2021/11/16 05:22:47;;;;;;;1.60;1.30;;;7.30;98.20;;;;;;4898734;29;20469;-78
2021/11/16 05:25:14;;;;;;;1.60;1.20;;;7.30;98.20;;;;;;4895395;29;20473;-74
2021/11/16 05:27:41;;;;;;;1.60;1.30;;;7.30;98.20;;;;;;4892861;29;20496;-75
2021/11/16 05:30:12;;;;;;;1.60;1.40;;;7.30;98.20;;;;;;4903570;29;20487;-74
2021/11/16 05:32:40;;;;;;;1.60;1.30;;;7.30;98.20;;;;;;4897942;29;20469;-74
2021/11/16 05:35:10;;;;;;;1.60;1.30;;;7.30;98.20;;;;;;4896439;29;20837;-75
2021/11/16 05:37:37;;;;;;;1.60;1.30;;;7.30;98.20;;;;;;4897534;29;20559;-76
2021/11/16 05:40:05;;;;;;;1.60;1.30;;;7.30;98.20;;;;;;4899996;29;20510;-76
2021/11/16 05:42:32;;;;;;;1.60;1.30;;;7.30;98.20;;;;;;4906742;29;20929;-75
2021/11/16 05:45:03;;;;;;;1.60;1.30;;;7.30;98.20;;;;;;4901017;29;20493;-77
2021/11/16 05:47:31;;;;;;;1.60;1.30;;;7.30;98.20;;;;;;4901899;29;20575;-77
2021/11/16 05:49:58;;;;;;;1.60;1.30;;;7.30;98.20;;;;;;4903072;29;21023;-75
2021/11/16 05:52:25;;;;;;;1.60;1.30;;;7.30;98.20;;;;;;4899985;29;20473;-76
2021/11/16 05:54:53;;;;;;;1.60;1.30;;;7.30;98.20;;;;;;4895855;29;20473;-73
2021/11/16 05:57:20;;;;;;;1.60;1.30;;;7.30;98.20;;;;;;4894051;29;20473;-74
2021/11/16 05:59:48;;;;;;;1.60;1.30;;;7.30;98.20;;;;;;4897797;29;20485;-73
2021/11/16 06:02:17;;;;;;;1.60;1.40;;;7.30;98.20;;;;;;4896509;29;20484;-75
2021/11/16 06:04:46;;;;;;;1.67;1.40;;;7.20;98.20;;;;;;4896442;29;20480;-76
2021/11/16 06:07:14;;;;;;;1.60;1.20;;;7.20;98.20;;;;;;4898734;29;20987;-74
2021/11/16 06:09:42;;;;;;;1.60;1.30;;;7.20;98.20;;;;;;4902205;29;20843;-74
2021/11/16 06:12:10;;;;;;;1.60;1.30;;;7.20;98.20;;;;;;4897458;29;20481;-74
2021/11/16 06:14:37;;;;;;;1.60;1.30;;;7.20;98.20;;;;;;4896386;29;20477;-74
2021/11/16 06:17:05;;;;;;;1.60;1.30;;;7.20;98.20;;;;;;4897402;29;20470;-74
2021/11/16 06:19:35;;;;;;;1.60;1.30;;;7.30;98.20;;;;;;4901881;29;20587;-74
2021/11/16 06:22:06;;;;;;;1.60;1.30;;;7.30;98.20;;;;;;4910756;29;20472;-75
2021/11/16 06:24:33;;;;;;;1.60;1.30;;;7.30;98.20;;;;;;4894622;29;20529;-72
2021/11/16 06:27:01;;;;;;;1.60;1.30;;;7.30;98.20;;;;;;4897421;29;20492;-73
2021/11/16 06:29:27;;;;;;;1.60;1.30;;;7.30;98.20;;;;;;4904392;29;20986;-73
2021/11/16 06:31:54;;;;;;;1.60;1.30;;;7.30;98.20;;;;;;4912349;29;20498;-75
2021/11/16 06:34:21;;;;;;;1.60;1.33;;;7.30;98.20;;;;;;4901544;29;20617;-76
2021/11/16 06:36:48;;;;;;;1.60;1.20;;;7.30;98.20;;;;;;4895713;29;20480;-75
2021/11/16 06:39:19;;;;;;;1.80;1.30;;;7.30;98.20;;;;;;4896258;29;20469;-74
2021/11/16 06:41:48;;;;;;;1.60;1.30;;;7.20;98.20;;;;;;4911975;29;20572;-76
2021/11/16 06:44:19;;;;;;;1.60;1.30;;;7.20;98.20;;;;;;4912186;29;20476;-75
2021/11/16 06:46:48;;;;;;;1.60;1.30;;;7.20;98.20;;;;;;4899575;29;20469;-76
2021/11/16 06:49:16;;;;;;;1.60;1.30;;;7.20;98.20;;;;;;4901871;29;20492;-71
2021/11/16 06:51:46;;;;;;;1.60;1.30;;;7.20;98.20;;;;;;4910737;29;20492;-74
2021/11/16 06:54:18;;;;;;;1.60;1.30;;;7.20;98.20;;;;;;4889178;29;20489;-72
2021/11/16 06:56:48;;;;;;;1.60;1.20;;;7.20;98.20;;;;;;4894821;29;20481;-72
2021/11/16 06:59:15;;;;;;;1.60;1.30;;;7.20;98.20;;;;;;4903866;29;21043;-72
2021/11/16 07:01:42;;;;;;;1.60;1.30;;;7.20;98.20;;;;;;4910851;29;20499;-71
2021/11/16 07:04:11;;;;;;;1.60;1.30;;;7.20;98.20;;;;;;4911019;29;20469;-72
2021/11/16 07:06:39;;;;;;;1.60;1.33;;;7.20;98.20;;;;;;4909586;29;20476;-73
2021/11/16 07:09:06;;;;;;;1.60;1.30;;;7.20;98.20;;;;;;4886573;29;20577;-72
2021/11/16 07:11:44;;;;;;;1.60;1.30;;;7.20;98.20;;;;;;4891640;29;20500;-72
2021/11/16 07:14:12;;;;;;;1.60;1.30;;;7.20;98.20;;;;;;4889303;29;20470;-72
2021/11/16 07:16:42;;;;;;;1.60;1.30;;;7.20;98.20;;;;;;4893636;29;20474;-72
2021/11/16 07:19:11;;;;;;;1.60;1.30;;;7.20;98.20;;;;;;4890533;29;20495;-72
2021/11/16 07:21:47;;;;;;;1.60;1.40;;;7.20;98.20;;;;;;4898549;29;20497;-72
2021/11/16 07:24:16;;;;;;;1.60;1.30;;;7.20;98.20;;;;;;4888957;29;20888;-72
2021/11/16 07:26:54;;;;;;;1.60;1.30;;;7.20;98.20;;;;;;4888995;29;20478;-72
2021/11/16 07:29:32;;;;;;;1.60;1.30;;;7.20;98.20;;;;;;4902351;29;20489;-72
2021/11/16 07:32:00;;;;;;;1.60;1.30;;;7.20;98.20;;;;;;4912690;29;20532;-72
2021/11/16 07:34:30;;;;;;;1.60;1.30;;;7.20;98.20;;;;;;4894631;29;20543;-74
2021/11/16 07:37:00;;;;;;;1.60;1.30;;;7.20;98.20;;;;;;4904096;29;20460;-72
2021/11/16 07:39:30;;;;;;;1.60;1.30;;;7.20;98.20;;;;;;4889652;29;20734;-72
2021/11/16 07:42:05;;;;;;;1.60;1.30;;;7.20;98.20;;;;;;4892865;29;20504;-71
2021/11/16 07:44:33;;;;;;;3.67;3.37;;;7.20;98.20;;;;;;4893525;29;20521;-72
2021/11/16 07:47:00;;;;;;;1.60;1.30;;;7.20;98.20;;;;;;4895661;29;20470;-72
2021/11/16 07:49:27;;;;;;;1.60;1.30;;;7.20;98.20;;;;;;4891043;29;20493;-72
2021/11/16 07:51:55;;;;;;;1.60;1.30;;;7.20;98.20;;;;;;4906200;29;20509;-71
2021/11/16 07:54:24;;;;;;;1.60;1.30;;;7.20;98.20;;;;;;4910582;29;20499;-73
2021/11/16 07:56:51;;;;;;;1.70;1.40;;;7.20;98.20;;;;;;4893537;29;20489;-72
2021/11/16 07:59:24;;;;;;;1.60;1.20;;;7.20;98.20;;;;;;4901231;29;21029;-72
2021/11/16 08:01:58;;;;;;;1.60;1.20;;;7.20;98.20;;;;;;4891743;29;21012;-73
2021/11/16 08:04:28;;;;;;;1.60;1.23;;;7.20;98.20;;;;;;4897758;29;20472;-73
2021/11/16 08:07:03;;;;;;;1.60;1.30;;;7.30;98.20;;;;;;4894520;29;20472;-72
2021/11/16 08:09:41;;;;;;;1.60;1.30;;;7.30;98.20;;;;;;4905150;29;20502;-72
2021/11/16 08:12:21;;;;;;;1.60;1.20;;;7.30;98.20;;;;;;4908377;29;20677;-73
2021/11/16 08:14:59;;;;;;;1.60;1.40;;;7.30;98.20;;;;;;4885611;29;20474;-72
2021/11/16 08:17:27;;;;;;;1.60;1.30;;;7.30;98.20;;;;;;4890269;29;20468;-72
2021/11/16 08:19:57;;;;;;;1.60;1.30;;;7.30;98.20;;;;;;4894834;29;20494;-72
2021/11/16 08:22:24;;;;;;;1.60;1.30;;;7.30;98.20;;;;;;4890486;29;20949;-72
2021/11/16 08:24:51;;;;;;;1.60;1.30;;;7.30;98.20;;;;;;4888345;29;20855;-72
2021/11/16 08:27:22;;;;;;;2.23;2.03;;;7.30;98.20;;;;;;4899438;29;21104;-72
2021/11/16 08:29:58;;;;;;;1.60;1.30;;;7.30;98.20;;;;;;4898750;29;20493;-73
2021/11/16 08:32:33;;;;;;;2.70;2.00;;;7.30;98.20;;;;;;4891185;29;20481;-72
2021/11/16 08:35:01;;;;;;;1.60;1.30;;;7.30;98.20;;;;;;4893393;29;20531;-72
2021/11/16 08:37:31;;;;;;;1.60;1.30;;;7.30;98.20;;;;;;4890327;29;20465;-72
2021/11/16 08:40:02;;;;;;;1.60;1.30;;;7.30;98.20;;;;;;4891480;29;20851;-72
2021/11/16 08:42:31;;;;;;;1.60;1.30;;;7.30;98.20;;;;;;4890145;29;20545;-73
2021/11/16 08:45:03;;;;;;;1.60;1.30;;;7.30;98.20;;;;;;4890884;29;21016;-73
2021/11/16 08:47:33;;;;;;;1.60;1.30;;;7.30;98.20;;;;;;4890442;29;20466;-73
2021/11/16 08:50:01;;;;;;;1.60;1.30;;;7.40;98.20;;;;;;4884191;29;20593;-73
2021/11/16 08:52:32;;;;;;;1.60;1.27;;;7.40;98.20;;;;;;4894289;29;20481;-74
2021/11/16 08:55:01;;;;;;;1.60;1.30;;;7.40;98.20;;;;;;4889980;29;20473;-74
2021/11/16 08:57:31;;;;;;;1.60;1.30;;;7.40;98.20;;;;;;4889240;29;20548;-73
2021/11/16 09:00:02;;;;;;;1.60;1.30;;;7.60;98.20;;;;;;4909958;29;20543;-73
2021/11/16 09:02:30;;;;;;;1.60;1.20;;;7.70;98.20;;;;;;4900795;29;20477;-74
2021/11/16 09:05:08;;;;;;;1.60;1.30;;;7.80;98.20;;;;;;4893290;29;20469;-74
2021/11/16 09:07:35;;;;;;;1.60;1.30;;;7.80;98.20;;;;;;4892485;29;20496;-74
2021/11/16 09:10:05;;;;;;;1.60;1.20;;;7.80;98.20;;;;;;4889205;29;20497;-74
2021/11/16 09:12:43;;;;;;;1.60;1.27;;;7.70;98.20;;;;;;4887160;29;20578;-74
2021/11/16 09:15:17;;;;;;;1.60;1.30;;;7.60;98.20;;;;;;4901299;29;20473;-73
2021/11/16 09:17:45;;;;;;;1.60;1.30;;;7.50;98.20;;;;;;4886276;29;20508;-74
2021/11/16 09:20:21;;;;;;;1.60;1.30;;;7.30;98.20;;;;;;4891179;29;21039;-74
2021/11/16 09:22:49;;;;;;;1.60;1.30;;;7.30;98.20;;;;;;4890947;29;20485;-75
2021/11/16 09:25:26;;;;;;;1.60;1.30;;;7.30;98.20;;;;;;4900619;29;20693;-74
2021/11/16 09:28:00;;;;;;;1.60;1.30;;;7.30;98.20;;;;;;4897015;29;20513;-73
2021/11/16 09:30:34;;;;;;;1.60;1.23;;;7.20;98.20;;;;;;4887349;29;20499;-75
2021/11/16 09:33:05;;;;;;;1.60;1.23;;;7.20;98.20;;;;;;4897524;29;20926;-75
2021/11/16 09:35:47;;;;;;;1.60;1.33;;;7.10;98.20;;;;;;4898660;29;20473;-74
2021/11/16 09:38:14;;;;;;;1.60;1.30;;;7.00;98.20;;;;;;4889915;29;20480;-74
2021/11/16 09:40:41;;;;;;;3.20;3.00;;;7.00;98.20;;;;;;4890255;29;20481;-74
2021/11/16 09:43:11;;;;;;;1.77;1.67;;;7.00;98.20;;;;;;4890107;29;20469;-74
2021/11/16 09:45:44;;;;;;;1.60;1.30;;;7.00;98.20;;;;;;4888263;29;20474;-75
2021/11/16 09:48:20;;;;;;;1.60;1.30;;;7.00;98.20;;;;;;4890660;29;20817;-76
2021/11/16 09:50:47;;;;;;;1.60;1.30;;;7.00;98.20;;;;;;4889968;29;21042;-76
2021/11/16 09:53:16;;;;;;;1.60;1.30;;;7.00;98.20;;;;;;4905009;29;20475;-77
2021/11/16 09:55:43;;;;;;;1.60;1.30;;;7.00;98.20;;;;;;4896857;29;20473;-75
2021/11/16 09:58:20;;;;;;;1.60;1.30;;;7.00;98.20;;;;;;4889075;29;20537;-76
2021/11/16 10:00:48;;;;;;;1.60;1.40;;;7.10;98.20;;;;;;4897133;29;21099;-76
2021/11/16 10:03:17;;;;;;;1.60;1.30;;;7.10;98.20;;;;;;4895772;29;20469;-74
2021/11/16 10:05:47;;;;;;;1.60;1.40;;;7.10;98.20;;;;;;4888354;29;20470;-74
2021/11/16 10:08:17;;;;;;;2.23;2.03;;;7.10;98.20;;;;;;4903493;29;20484;-77
2021/11/16 10:10:46;;;;;;;1.60;1.30;;;7.10;98.20;;;;;;4901884;29;21166;-78
2021/11/16 10:13:17;;;;;;;1.70;1.53;;;7.10;98.20;;;;;;4892969;29;20887;-75
2021/11/16 10:15:47;;;;;;;1.60;1.30;;;7.10;98.20;;;;;;4898143;29;20480;-75
2021/11/16 10:18:17;;;;;;;1.60;1.30;;;7.10;98.20;;;;;;4895673;29;20474;-76
2021/11/16 10:20:47;;;;;;;1.60;1.20;;;7.10;98.20;;;;;;4893937;29;20489;-75
2021/11/16 10:23:16;;;;;;;1.60;1.30;;;7.10;98.20;;;;;;4888178;29;20508;-74
2021/11/16 10:25:52;;;;;;;1.60;1.20;;;7.00;98.20;;;;;;4895368;29;20470;-73
2021/11/16 10:28:19;;;;;;;1.60;1.30;;;7.00;98.20;;;;;;4890500;29;21162;-73
2021/11/16 10:30:46;;;;;;;1.60;1.30;;;7.00;98.20;;;;;;4896724;29;20622;-74
2021/11/16 10:33:20;;;;;;;1.60;1.20;;;7.10;98.20;;;;;;4903728;29;20476;-74
2021/11/16 10:35:50;;;;;;;1.60;1.30;;;7.10;98.20;;;;;;4898801;29;20484;-73
2021/11/16 10:38:19;;;;;;;1.60;1.30;;;7.10;98.20;;;;;;4892436;29;20525;-74
2021/11/16 10:40:47;;;;;;;1.60;1.30;;;7.20;98.20;;;;;;4889576;29;20536;-74
2021/11/16 10:43:15;;;;;;;1.60;1.30;;;7.20;98.20;;;;;;4897953;29;20914;-74
2021/11/16 10:45:44;;;;;;;1.60;1.30;;;7.20;98.20;;;;;;4891871;29;20495;-74
2021/11/16 10:48:14;;;;;;;1.60;1.30;;;7.20;98.20;;;;;;4892633;29;21009;-74
2021/11/16 10:50:45;;;;;;;1.60;1.27;;;7.20;98.20;;;;;;4890596;29;20500;-74
2021/11/16 10:53:15;;;;;;;1.60;1.30;;;7.20;98.20;;;;;;4891175;29;20505;-74
2021/11/16 10:55:44;;;;;;;1.60;1.20;;;7.20;98.20;;;;;;4900933;29;20528;-74
2021/11/16 10:58:13;;;;;;;1.60;1.27;;;7.30;98.20;;;;;;4897741;29;20532;-74
2021/11/16 11:00:45;;;;;;;1.70;1.50;;;7.30;98.20;;;;;;4887677;29;20532;-73
2021/11/16 11:03:19;;;;;;;1.60;1.30;;;7.40;98.20;;;;;;4889140;29;20957;-73
2021/11/16 11:05:48;;;;;;;1.60;1.40;;;7.40;98.20;;;;;;4893726;29;20966;-73
2021/11/16 11:08:38;;;;;;;1.60;1.30;;;7.40;98.20;;;;;;4885438;29;20484;-73
2021/11/16 11:11:15;;;;;;;1.60;1.30;;;7.40;98.20;;;;;;4889081;29;20502;-73
2021/11/16 11:13:46;;;;;;;1.60;1.27;;;7.40;98.20;;;;;;4896451;29;20517;-74
2021/11/16 11:16:16;;;;;;;1.60;1.20;;;7.40;98.20;;;;;;4888213;29;21404;-73
2021/11/16 11:18:45;;;;;;;1.60;1.30;;;7.30;98.20;;;;;;4890376;29;20848;-74
2021/11/16 11:21:38;;;;;;;1.60;1.20;;;7.30;98.20;;;;;;4887877;29;20497;-73
2021/11/16 11:24:15;;;;;;;1.60;1.30;;;7.40;98.20;;;;;;4887812;29;20968;-73
2021/11/16 11:26:45;;;;;;;1.60;1.20;;;7.40;98.20;;;;;;4895549;29;20925;-73
2021/11/16 11:29:27;;;;;;;1.60;1.30;;;7.50;98.20;;;;;;4884354;29;20489;-74
2021/11/16 11:32:00;;;;;;;1.60;1.30;;;7.50;98.20;;;;;;4893916;29;20611;-73
2021/11/16 11:34:38;;;;;;;1.60;1.30;;;7.50;98.20;;;;;;4892141;29;20526;-74
2021/11/16 11:37:11;;;;;;;1.60;1.30;;;7.50;98.20;;;;;;4890471;29;20504;-73
2021/11/16 11:39:38;;;;;;;1.60;1.27;;;7.60;98.20;;;;;;4904603;29;20472;-74
2021/11/16 11:42:12;;;;;;;1.60;1.27;;;7.50;98.20;;;;;;4896345;29;20664;-74
2021/11/16 11:44:44;;;;;;;1.60;1.30;;;7.50;98.20;;;;;;4888399;29;20473;-74
2021/11/16 11:47:27;;;;;;;1.60;1.20;;;7.40;98.20;;;;;;4889305;29;20559;-74
2021/11/16 11:49:54;;;;;;;1.60;1.30;;;7.50;98.20;;;;;;4888451;29;20986;-73
2021/11/16 11:52:22;;;;;;;1.60;1.30;;;7.50;98.20;;;;;;4895123;29;20468;-73
2021/11/16 11:54:50;;;;;;;1.60;1.40;;;7.50;98.20;;;;;;4897107;29;21066;-74
2021/11/16 11:57:17;;;;;;;1.60;1.30;;;7.50;98.20;;;;;;4888194;29;20942;-74
2021/11/16 11:59:44;;;;;;;1.60;1.20;;;7.40;98.20;;;;;;4895636;29;20625;-73
2021/11/16 12:02:13;;;;;;;1.60;1.30;;;7.40;98.20;;;;;;4889865;29;20464;-74
2021/11/16 12:04:40;;;;;;;1.60;1.20;;;7.40;98.20;;;;;;4889536;29;20469;-77
2021/11/16 12:07:07;;;;;;;1.60;1.20;;;7.30;98.20;;;;;;4887749;29;20897;-74
2021/11/16 12:09:37;;;;;;;1.60;1.30;;;7.40;98.20;;;;;;4888381;29;20835;-74
2021/11/16 12:12:05;;;;;;;1.60;1.30;;;7.40;98.20;;;;;;4889186;29;20478;-74
2021/11/16 12:14:44;;;;;;;1.60;1.30;;;7.40;98.20;;;;;;4885094;29;20484;-74
2021/11/16 12:17:13;;;;;;;1.60;1.30;;;7.40;98.20;;;;;;4892151;29;20476;-74
2021/11/16 12:19:52;;;;;;;1.60;1.30;;;7.40;98.20;;;;;;4892176;29;20497;-73
2021/11/16 12:22:23;;;;;;;1.60;1.30;;;7.50;98.20;;;;;;4885833;29;20997;-76
2021/11/16 12:24:54;;;;;;;1.60;1.30;;;7.50;98.20;;;;;;4901759;29;21069;-75
2021/11/16 12:27:24;;;;;;;1.60;1.30;;;7.50;98.20;;;;;;4897900;29;21022;-77
2021/11/16 12:29:52;;;;;;;1.60;1.30;;;7.60;98.20;;;;;;4905935;29;20495;-73
2021/11/16 12:32:25;;;;;;;1.60;1.30;;;7.60;98.20;;;;;;4901574;29;20566;-74
2021/11/16 12:35:02;;;;;;;1.60;1.27;;;7.60;98.20;;;;;;4896400;29;20474;-77
2021/11/16 12:37:43;;;;;;;1.60;1.50;;;7.60;98.20;;;;;;4908920;29;20993;-75
2021/11/16 12:40:21;;;;;;;1.60;1.20;;;7.60;98.20;;;;;;4908662;29;20492;-74
2021/11/16 12:43:23;;;;;;;1.60;1.30;;;7.60;98.20;;;;;;4899757;29;20918;-76
2021/11/16 12:45:56;;;;;;;1.60;1.30;;;7.60;98.20;;;;;;4892665;29;20940;-74
2021/11/16 12:48:47;;;;;;;1.60;1.30;;;7.60;98.20;;;;;;4892398;29;22481;-74
2021/11/16 12:51:19;;;;;;;1.60;1.30;;;7.60;98.20;;;;;;4894044;29;20499;-74
2021/11/16 12:53:58;;;;;;;1.60;1.30;;;7.60;98.20;;;;;;4897414;29;20499;-74
2021/11/16 12:57:05;;;;;;;1.60;1.30;;;7.60;98.20;;;;;;4888859;29;20535;-75
2021/11/16 13:00:04;;;;;;;1.60;1.30;;;7.70;98.20;;;;;;4894999;29;20503;-75
2021/11/16 13:02:34;;;;;;;1.60;1.30;;;7.70;98.20;;;;;;4892337;29;21064;-74
2021/11/16 13:05:04;;;;;;;1.60;1.30;;;7.70;98.20;;;;;;4892056;29;20473;-75
2021/11/16 13:07:33;;;;;;;1.60;1.30;;;7.70;98.20;;;;;;4894679;29;20483;-74
2021/11/16 13:10:08;;;;;;;1.60;1.20;;;7.80;98.20;;;;;;4899073;29;20849;-74
2021/11/16 13:12:43;;;;;;;1.60;1.20;;;7.80;98.20;;;;;;4897941;29;20572;-74
2021/11/16 13:15:21;;;;;;;1.60;1.30;;;7.80;98.20;;;;;;4890309;29;20468;-74
2021/11/16 13:17:52;;;;;;;1.60;1.20;;;7.80;98.20;;;;;;4891117;29;20774;-73
2021/11/16 13:20:30;;;;;;;1.60;1.27;;;7.80;98.20;;;;;;4888356;29;20988;-76